Time;durP1;ratioP1;P1;durP2;ratioP2;P2;SDS_P1;SDS_P2;PMS_P1;PMS_P2;Temp;Humidity;BMP_temperature;BMP_pressure;BME280_temperature;BME280_humidity;BME280_pressure;Samples;Min_cycle;Max_cycle;Signal;HPM_P1;HPM_P2
2023/03/22 00:02:25;;;;;;;8.23;6.37;;;13.60;94.10;;;;;;5054924;28;20996;-58
2023/03/22 00:04:52;;;;;;;5.90;5.30;;;13.50;94.10;;;;;;5055005;28;20478;-58
2023/03/22 00:07:19;;;;;;;8.00;6.30;;;13.50;94.20;;;;;;5054926;28;20446;-57
2023/03/22 00:09:46;;;;;;;9.00;6.57;;;13.50;94.20;;;;;;5054541;28;20939;-57
2023/03/22 00:12:12;;;;;;;8.90;6.90;;;13.50;94.40;;;;;;5054745;28;20464;-57
2023/03/22 00:14:41;;;;;;;8.80;7.03;;;13.40;94.50;;;;;;5054797;28;20454;-58
2023/03/22 00:17:08;;;;;;;6.77;6.03;;;13.40;94.70;;;;;;5054971;28;20503;-57
2023/03/22 00:19:35;;;;;;;8.73;6.57;;;13.40;94.90;;;;;;5054703;28;20461;-58
2023/03/22 00:22:05;;;;;;;12.87;7.47;;;13.40;95.10;;;;;;5054217;28;20963;-59
2023/03/22 00:24:31;;;;;;;9.10;6.20;;;13.40;95.20;;;;;;5054582;28;20476;-57
2023/03/22 00:26:59;;;;;;;10.17;6.70;;;13.40;95.20;;;;;;5054794;28;20453;-57
2023/03/22 00:29:25;;;;;;;9.63;6.47;;;13.30;95.20;;;;;;5054277;28;20989;-58
2023/03/22 00:31:54;;;;;;;9.57;6.60;;;13.30;95.40;;;;;;5054462;28;20456;-58
2023/03/22 00:34:21;;;;;;;10.40;7.90;;;13.30;95.50;;;;;;5054389;28;21022;-58
2023/03/22 00:36:48;;;;;;;11.23;7.20;;;13.30;95.60;;;;;;5054547;28;20793;-57
2023/03/22 00:39:15;;;;;;;8.63;6.43;;;13.30;95.70;;;;;;5054126;28;20461;-57
2023/03/22 00:41:42;;;;;;;10.13;7.90;;;13.30;95.80;;;;;;5054485;28;20446;-57
2023/03/22 00:44:08;;;;;;;7.80;6.80;;;13.30;95.90;;;;;;5053600;28;20481;-58
2023/03/22 00:46:36;;;;;;;13.00;6.47;;;13.20;96.20;;;;;;5054302;28;20449;-57
2023/03/22 00:49:04;;;;;;;8.07;7.27;;;13.20;96.10;;;;;;5054327;28;20464;-58
2023/03/22 00:51:31;;;;;;;8.10;7.30;;;13.10;96.20;;;;;;5054217;28;20461;-57
2023/03/22 00:53:57;;;;;;;7.93;6.77;;;13.10;96.40;;;;;;5053928;28;20825;-58
2023/03/22 00:56:27;;;;;;;15.33;9.10;;;13.00;96.50;;;;;;5054238;28;20449;-57
2023/03/22 00:58:54;;;;;;;9.03;7.30;;;13.00;96.60;;;;;;5054163;28;20446;-57
2023/03/22 01:01:21;;;;;;;11.33;7.60;;;13.00;96.70;;;;;;5053870;28;20453;-57
2023/03/22 01:03:49;;;;;;;10.10;6.80;;;13.00;96.70;;;;;;5053749;28;20465;-58
2023/03/22 01:06:17;;;;;;;8.00;7.20;;;13.00;96.70;;;;;;5053681;28;20531;-57
2023/03/22 01:08:44;;;;;;;8.60;7.10;;;13.00;96.70;;;;;;5053776;28;20820;-57
2023/03/22 01:11:11;;;;;;;9.10;7.63;;;12.90;96.60;;;;;;5053682;28;20453;-57
2023/03/22 01:13:38;;;;;;;8.53;6.90;;;12.90;96.80;;;;;;5053517;28;20469;-58
2023/03/22 01:16:05;;;;;;;9.37;7.20;;;13.00;96.70;;;;;;5053319;28;20931;-57
2023/03/22 01:18:32;;;;;;;9.40;7.70;;;12.90;96.70;;;;;;5053282;28;20942;-57
2023/03/22 01:20:59;;;;;;;7.63;6.40;;;12.90;96.70;;;;;;5053598;28;20498;-57
2023/03/22 01:23:27;;;;;;;8.37;7.03;;;12.90;96.80;;;;;;5053435;28;20469;-57
2023/03/22 01:25:54;;;;;;;10.70;9.37;;;12.90;96.90;;;;;;5053135;28;20477;-57
2023/03/22 01:28:20;;;;;;;14.90;6.77;;;12.90;96.90;;;;;;5053970;28;20503;-57
2023/03/22 01:30:47;;;;;;;9.63;7.10;;;12.90;96.80;;;;;;5053090;28;20453;-57
2023/03/22 01:33:14;;;;;;;8.80;7.37;;;12.90;96.80;;;;;;5053288;28;20473;-57
2023/03/22 01:35:41;;;;;;;9.43;6.40;;;12.90;96.90;;;;;;5052945;28;20445;-58
2023/03/22 01:38:07;;;;;;;17.40;7.60;;;12.90;97.00;;;;;;5052946;28;20953;-57
2023/03/22 01:40:35;;;;;;;7.73;6.73;;;12.90;97.00;;;;;;5053367;28;20501;-57
2023/03/22 01:43:02;;;;;;;9.43;7.07;;;12.80;97.00;;;;;;5052836;28;21029;-57
2023/03/22 01:45:41;;;;;;;8.00;6.70;;;12.80;97.00;;;;;;5053068;28;20492;-57
2023/03/22 01:48:17;;;;;;;8.93;6.50;;;12.80;97.10;;;;;;5053264;28;20516;-58
2023/03/22 01:50:48;;;;;;;8.33;7.30;;;12.70;97.10;;;;;;5052938;28;20942;-57
2023/03/22 01:53:22;;;;;;;10.10;6.17;;;12.70;97.20;;;;;;5053052;28;20480;-57
2023/03/22 01:55:51;;;;;;;9.27;6.47;;;12.70;97.30;;;;;;5055174;28;20433;-57
2023/03/22 01:58:18;;;;;;;7.53;6.40;;;12.70;97.30;;;;;;5057210;28;20449;-57
2023/03/22 02:00:46;;;;;;;8.50;7.60;;;12.70;97.50;;;;;;5057190;28;20503;-57
2023/03/22 02:03:18;;;;;;;9.37;5.90;;;12.60;97.60;;;;;;5057034;28;20470;-57
2023/03/22 02:05:44;;;;;;;7.83;6.70;;;12.60;97.60;;;;;;5056965;28;20468;-57
2023/03/22 02:08:13;;;;;;;6.53;5.67;;;12.60;97.80;;;;;;5057167;28;20438;-57
2023/03/22 02:10:41;;;;;;;11.57;6.47;;;12.60;97.80;;;;;;5057189;28;20489;-58
2023/03/22 02:13:26;;;;;;;8.17;6.23;;;12.70;97.90;;;;;;5057224;28;20472;-58
2023/03/22 02:16:03;;;;;;;6.30;5.43;;;12.60;97.80;;;;;;5057744;28;20425;-58
2023/03/22 02:18:50;;;;;;;9.13;5.87;;;12.60;97.90;;;;;;5057606;28;20430;-57
2023/03/22 02:21:55;;;;;;;7.23;6.50;;;12.60;98.10;;;;;;5057422;28;20446;-57
2023/03/22 02:24:45;;;;;;;8.07;6.13;;;12.50;98.10;;;;;;5056815;28;20461;-57
2023/03/22 02:27:40;;;;;;;7.97;5.93;;;12.50;98.20;;;;;;5056551;28;20960;-57
2023/03/22 02:30:37;;;;;;;16.13;6.20;;;12.50;98.40;;;;;;5056793;28;20457;-57
2023/03/22 02:33:37;;;;;;;9.43;5.80;;;12.50;98.40;;;;;;5056349;28;20892;-57
2023/03/22 02:36:33;;;;;;;10.37;5.37;;;12.50;98.40;;;;;;5056651;28;20532;-57
2023/03/22 02:39:21;;;;;;;11.60;5.50;;;12.50;98.60;;;;;;5056408;28;20871;-57
2023/03/22 02:42:00;;;;;;;8.70;4.97;;;12.40;98.60;;;;;;5056615;28;20432;-57
2023/03/22 02:44:36;;;;;;;10.17;5.20;;;12.40;98.80;;;;;;5056404;28;20465;-57
2023/03/22 02:47:06;;;;;;;7.23;5.30;;;12.40;98.90;;;;;;5056401;28;20433;-57
2023/03/22 02:49:38;;;;;;;8.90;4.80;;;12.40;98.90;;;;;;5056420;28;20452;-57
2023/03/22 02:52:16;;;;;;;10.57;5.73;;;12.40;99.00;;;;;;5056289;28;20426;-58
2023/03/22 02:54:50;;;;;;;5.53;4.67;;;12.40;99.10;;;;;;5056169;28;20461;-57
2023/03/22 02:57:25;;;;;;;7.07;4.60;;;12.30;99.20;;;;;;5056278;28;20434;-57
2023/03/22 02:59:53;;;;;;;12.13;5.40;;;12.40;99.20;;;;;;5056265;28;20441;-57
2023/03/22 03:02:22;;;;;;;7.40;4.90;;;12.30;99.10;;;;;;5056081;28;20453;-58
2023/03/22 03:04:51;;;;;;;8.30;4.70;;;12.30;99.20;;;;;;5056055;28;20477;-58
2023/03/22 03:07:21;;;;;;;9.23;4.20;;;12.40;99.30;;;;;;5054967;28;20831;-57
2023/03/22 03:09:50;;;;;;;5.87;4.63;;;12.30;99.30;;;;;;5056088;28;20802;-57
2023/03/22 03:12:19;;;;;;;5.17;3.80;;;12.30;99.30;;;;;;5056477;28;20453;-58
2023/03/22 03:14:46;;;;;;;8.13;4.77;;;12.40;99.40;;;;;;5055771;28;20871;-57
2023/03/22 03:17:24;;;;;;;6.30;4.03;;;12.40;99.30;;;;;;5055995;28;20452;-57
2023/03/22 03:20:06;;;;;;;8.87;4.70;;;12.40;99.30;;;;;;5055982;28;20441;-57
2023/03/22 03:22:44;;;;;;;5.13;4.20;;;12.40;99.20;;;;;;5056076;28;20500;-57
2023/03/22 03:25:19;;;;;;;6.70;3.90;;;12.40;99.30;;;;;;5055660;28;20512;-57
2023/03/22 03:27:56;;;;;;;5.67;3.90;;;12.40;99.20;;;;;;5055682;28;20438;-57
2023/03/22 03:30:27;;;;;;;8.37;3.67;;;12.40;99.20;;;;;;5055353;28;20900;-57
2023/03/22 03:32:58;;;;;;;6.47;4.20;;;12.30;99.20;;;;;;5055384;28;20473;-58
2023/03/22 03:35:27;;;;;;;6.37;3.73;;;12.30;99.30;;;;;;5055593;28;20426;-57
2023/03/22 03:38:00;;;;;;;6.60;3.60;;;12.30;99.20;;;;;;5055013;28;20454;-57
2023/03/22 03:40:30;;;;;;;6.53;3.77;;;12.30;99.30;;;;;;5055435;28;20440;-57
2023/03/22 03:43:00;;;;;;;6.20;4.17;;;12.30;99.40;;;;;;5055383;28;20578;-57
2023/03/22 03:45:27;;;;;;;5.17;3.70;;;12.30;99.40;;;;;;5054991;28;20480;-57
2023/03/22 03:47:58;;;;;;;8.50;4.00;;;12.20;99.30;;;;;;5055442;28;20454;-57
2023/03/22 03:50:26;;;;;;;11.33;4.83;;;12.20;99.30;;;;;;5055297;28;20430;-57
2023/03/22 03:52:54;;;;;;;8.83;4.60;;;12.20;99.30;;;;;;5055063;28;20477;-58
2023/03/22 03:55:22;;;;;;;10.70;4.70;;;12.20;99.40;;;;;;5055190;28;20449;-57
2023/03/22 03:57:50;;;;;;;7.23;4.00;;;12.20;99.40;;;;;;5054751;28;20461;-57
2023/03/22 04:00:17;;;;;;;6.43;4.33;;;12.20;99.40;;;;;;5054913;28;20472;-58
2023/03/22 04:02:44;;;;;;;8.03;4.50;;;12.10;99.40;;;;;;5054637;28;21105;-57
2023/03/22 04:05:12;;;;;;;6.30;4.07;;;12.10;99.50;;;;;;5054731;28;20477;-58
2023/03/22 04:07:40;;;;;;;6.20;4.70;;;12.10;99.60;;;;;;5054949;28;20537;-57
2023/03/22 04:10:08;;;;;;;6.47;4.50;;;12.10;99.60;;;;;;5054833;28;20495;-57
2023/03/22 04:12:35;;;;;;;6.10;4.80;;;12.20;99.50;;;;;;5054771;28;20505;-58
2023/03/22 04:15:03;;;;;;;9.60;4.67;;;12.10;99.40;;;;;;5054717;28;20456;-57
2023/03/22 04:17:30;;;;;;;5.33;3.87;;;12.10;99.40;;;;;;5054709;28;20452;-57
2023/03/22 04:19:57;;;;;;;8.77;4.40;;;12.10;99.40;;;;;;5053559;28;20450;-57
2023/03/22 04:22:25;;;;;;;10.90;4.33;;;12.10;99.40;;;;;;5054506;28;20470;-57
2023/03/22 04:24:51;;;;;;;9.83;4.53;;;12.10;99.40;;;;;;5054522;28;20480;-57
2023/03/22 04:27:19;;;;;;;7.67;4.07;;;12.10;99.70;;;;;;5054496;28;20442;-57
2023/03/22 04:29:47;;;;;;;8.87;4.40;;;12.10;99.30;;;;;;5054438;28;20511;-57
2023/03/22 04:32:17;;;;;;;8.50;3.73;;;12.00;99.40;;;;;;5053974;28;21024;-58
2023/03/22 04:34:45;;;;;;;8.33;4.27;;;12.00;99.50;;;;;;5054377;28;20438;-57
2023/03/22 04:37:12;;;;;;;8.93;4.47;;;12.00;99.30;;;;;;5054253;28;20500;-57
2023/03/22 04:39:39;;;;;;;4.70;3.97;;;12.00;99.30;;;;;;5053851;28;20829;-57
2023/03/22 04:42:06;;;;;;;6.50;4.40;;;12.00;99.30;;;;;;5054119;28;20441;-58
2023/03/22 04:44:33;;;;;;;6.57;4.33;;;11.90;99.10;;;;;;5054514;28;20445;-58
2023/03/22 04:46:59;;;;;;;6.50;4.17;;;11.90;99.20;;;;;;5054074;28;20493;-57
2023/03/22 04:49:28;;;;;;;6.47;3.90;;;11.90;99.30;;;;;;5054083;28;20457;-57
2023/03/22 04:51:55;;;;;;;6.60;3.93;;;11.90;99.20;;;;;;5054040;28;20449;-57
2023/03/22 04:54:22;;;;;;;7.97;4.60;;;11.90;99.10;;;;;;5053951;28;20516;-57
2023/03/22 04:56:49;;;;;;;6.17;4.50;;;11.90;99.20;;;;;;5053952;28;20445;-55
2023/03/22 04:59:18;;;;;;;7.57;5.20;;;11.90;99.20;;;;;;5053617;28;20485;-56
2023/03/22 05:01:45;;;;;;;7.03;4.73;;;12.00;99.10;;;;;;5053882;28;20453;-57
2023/03/22 05:04:12;;;;;;;9.80;5.37;;;12.00;99.00;;;;;;5053533;28;21014;-56
2023/03/22 05:06:40;;;;;;;9.63;5.60;;;12.00;99.00;;;;;;5053709;28;20481;-56
2023/03/22 05:09:07;;;;;;;4.90;4.40;;;12.00;99.00;;;;;;5053437;28;20507;-57
2023/03/22 05:11:35;;;;;;;9.33;5.30;;;12.00;99.10;;;;;;5053739;28;20457;-57
2023/03/22 05:14:02;;;;;;;7.60;5.47;;;12.00;99.00;;;;;;5053962;28;20466;-56
2023/03/22 05:16:29;;;;;;;7.77;4.53;;;12.00;99.10;;;;;;5053441;28;20444;-56
2023/03/22 05:18:55;;;;;;;7.67;4.23;;;12.00;99.20;;;;;;5053562;28;20952;-56
2023/03/22 05:21:27;;;;;;;9.07;6.40;;;12.00;99.10;;;;;;5053816;28;20446;-57
2023/03/22 05:23:56;;;;;;;12.90;5.10;;;12.00;99.10;;;;;;5053719;28;20473;-57
2023/03/22 05:26:25;;;;;;;11.53;5.50;;;12.00;99.20;;;;;;5053789;28;20477;-56
2023/03/22 05:28:51;;;;;;;10.93;5.37;;;12.00;99.20;;;;;;5053674;28;20449;-56
2023/03/22 05:31:20;;;;;;;8.60;5.23;;;12.00;99.20;;;;;;5053227;28;20454;-56
2023/03/22 05:33:47;;;;;;;10.73;5.13;;;12.00;99.10;;;;;;5053253;28;20891;-56
2023/03/22 05:36:14;;;;;;;8.17;5.10;;;12.10;99.30;;;;;;5053350;28;20446;-56
2023/03/22 05:38:41;;;;;;;7.30;5.40;;;12.10;99.20;;;;;;5053111;28;20462;-56
2023/03/22 05:41:10;;;;;;;12.57;5.50;;;12.10;99.10;;;;;;5053056;28;20825;-56
2023/03/22 05:43:37;;;;;;;7.37;5.20;;;12.10;99.20;;;;;;5053314;28;20501;-57
2023/03/22 05:46:05;;;;;;;7.00;4.43;;;12.20;99.20;;;;;;5053426;28;20489;-56
2023/03/22 05:48:32;;;;;;;5.93;4.70;;;12.20;99.10;;;;;;5053347;28;20496;-56
2023/03/22 05:50:59;;;;;;;6.40;4.40;;;12.10;99.10;;;;;;5053175;28;20450;-56
2023/03/22 05:53:26;;;;;;;6.77;4.20;;;12.20;99.10;;;;;;5052913;28;20489;-57
2023/03/22 05:55:56;;;;;;;10.30;4.50;;;12.20;99.00;;;;;;5053145;28;20437;-56
2023/03/22 05:58:27;;;;;;;7.30;4.37;;;12.30;99.00;;;;;;5053247;28;20462;-56
2023/03/22 06:00:54;;;;;;;7.63;4.20;;;12.40;98.80;;;;;;5053166;28;20445;-56
2023/03/22 06:03:21;;;;;;;10.63;4.60;;;12.40;98.50;;;;;;5052646;28;20983;-56
2023/03/22 06:05:49;;;;;;;9.67;4.30;;;12.40;98.50;;;;;;5052942;28;20480;-56
2023/03/22 06:08:16;;;;;;;5.87;3.57;;;12.50;98.50;;;;;;5053093;28;20531;-56
2023/03/22 06:10:42;;;;;;;5.53;3.50;;;12.50;98.50;;;;;;5053026;28;20454;-56
2023/03/22 06:13:09;;;;;;;7.83;3.97;;;12.50;98.30;;;;;;5052926;28;20520;-56
2023/03/22 06:15:37;;;;;;;8.93;4.17;;;12.50;98.30;;;;;;5053047;28;20449;-56
2023/03/22 06:18:04;;;;;;;11.23;4.00;;;12.40;98.20;;;;;;5052953;28;20484;-56
2023/03/22 06:20:31;;;;;;;5.13;3.60;;;12.40;98.20;;;;;;5052985;28;20455;-56
2023/03/22 06:22:57;;;;;;;6.70;5.00;;;12.50;98.30;;;;;;5052565;28;20472;-56
2023/03/22 06:25:24;;;;;;;10.77;3.93;;;12.60;98.20;;;;;;5052930;28;20827;-56
2023/03/22 06:27:51;;;;;;;5.00;3.70;;;12.60;98.10;;;;;;5052557;28;20851;-56
2023/03/22 06:30:19;;;;;;;6.00;3.37;;;12.70;98.00;;;;;;5052941;28;20452;-56
2023/03/22 06:32:47;;;;;;;6.47;3.20;;;12.70;97.70;;;;;;5052729;28;20472;-57
2023/03/22 06:35:14;;;;;;;5.87;3.37;;;12.80;97.50;;;;;;5053177;28;20453;-56
2023/03/22 06:37:41;;;;;;;9.17;3.17;;;12.80;97.40;;;;;;5052639;28;20477;-56
2023/03/22 06:40:09;;;;;;;8.50;3.27;;;12.70;97.40;;;;;;5052444;28;20461;-56
2023/03/22 06:42:36;;;;;;;6.17;3.33;;;12.80;97.40;;;;;;5053825;28;20982;-56
2023/03/22 06:45:03;;;;;;;6.53;3.30;;;12.70;97.10;;;;;;5056432;28;20445;-57
2023/03/22 06:47:30;;;;;;;7.00;3.40;;;12.80;97.50;;;;;;5056363;28;20481;-57
2023/03/22 06:49:58;;;;;;;11.47;3.40;;;12.90;97.20;;;;;;5056429;28;20503;-57
2023/03/22 06:52:25;;;;;;;7.43;2.70;;;12.90;96.90;;;;;;5056293;28;20469;-57
2023/03/22 06:54:51;;;;;;;6.50;2.77;;;13.00;96.80;;;;;;5056243;28;20445;-57
2023/03/22 06:57:18;;;;;;;5.50;2.93;;;13.00;96.60;;;;;;5056264;28;20442;-57
2023/03/22 06:59:45;;;;;;;6.30;2.80;;;13.00;96.50;;;;;;5056783;28;20454;-57
2023/03/22 07:02:12;;;;;;;6.67;2.23;;;13.10;96.50;;;;;;5055846;28;20449;-57
2023/03/22 07:04:39;;;;;;;3.67;2.30;;;13.10;96.20;;;;;;5055945;28;20456;-57
2023/03/22 07:07:07;;;;;;;11.60;2.70;;;13.10;96.00;;;;;;5055550;28;20864;-57
2023/03/22 07:09:33;;;;;;;9.10;2.33;;;13.10;95.60;;;;;;5056095;28;20449;-57
2023/03/22 07:12:00;;;;;;;7.40;2.10;;;13.20;95.50;;;;;;5055754;28;20457;-57
2023/03/22 07:14:27;;;;;;;5.37;2.00;;;13.30;95.30;;;;;;5055658;28;20473;-57
2023/03/22 07:16:53;;;;;;;8.47;2.30;;;13.30;94.90;;;;;;5055421;28;20438;-57
2023/03/22 07:19:20;;;;;;;4.13;1.47;;;13.40;94.90;;;;;;5055661;28;20449;-57
2023/03/22 07:21:47;;;;;;;8.00;3.20;;;13.50;94.40;;;;;;5055632;28;20450;-56
2023/03/22 07:24:15;;;;;;;3.67;1.60;;;13.40;94.20;;;;;;5055505;28;20493;-57
2023/03/22 07:26:42;;;;;;;5.80;1.83;;;13.40;94.10;;;;;;5055383;28;20990;-57
2023/03/22 07:29:09;;;;;;;4.20;1.90;;;13.50;94.10;;;;;;5055562;28;20557;-57
2023/03/22 07:31:36;;;;;;;10.07;1.60;;;13.50;94.20;;;;;;5056319;28;20492;-57
2023/03/22 07:34:03;;;;;;;6.33;1.80;;;13.40;94.10;;;;;;5055216;28;20508;-57
2023/03/22 07:36:30;;;;;;;15.70;1.70;;;13.40;94.00;;;;;;5055474;28;20464;-57
2023/03/22 07:38:57;;;;;;;4.60;1.40;;;13.40;93.70;;;;;;5055163;28;20458;-57
2023/03/22 07:41:27;;;;;;;4.60;1.60;;;13.40;93.30;;;;;;5055409;28;20458;-57
2023/03/22 07:43:54;;;;;;;7.73;2.00;;;13.40;93.60;;;;;;5055324;28;20483;-57
2023/03/22 07:46:20;;;;;;;3.87;1.63;;;13.40;93.00;;;;;;5055129;28;20902;-57
2023/03/22 07:48:47;;;;;;;11.43;1.87;;;13.40;93.40;;;;;;5054959;28;20935;-57
2023/03/22 07:51:14;;;;;;;7.03;1.67;;;13.40;93.30;;;;;;5055229;28;20445;-57
2023/03/22 07:53:40;;;;;;;6.13;1.90;;;13.40;93.00;;;;;;5054798;28;20508;-57
2023/03/22 07:56:08;;;;;;;9.77;1.47;;;13.40;93.10;;;;;;5055704;28;20452;-57
2023/03/22 07:58:36;;;;;;;8.80;2.20;;;13.30;92.90;;;;;;5055096;28;20460;-57
2023/03/22 08:01:04;;;;;;;9.60;1.87;;;13.40;93.10;;;;;;5055038;28;20456;-57
2023/03/22 08:03:31;;;;;;;20.83;2.00;;;13.30;92.60;;;;;;5054938;28;20473;-57
2023/03/22 08:06:03;;;;;;;9.10;1.20;;;13.30;92.80;;;;;;5055270;28;20445;-57
2023/03/22 08:08:29;;;;;;;11.13;1.57;;;13.10;92.60;;;;;;5055388;28;20418;-56
2023/03/22 08:10:56;;;;;;;11.33;2.00;;;13.10;92.60;;;;;;5055281;28;20448;-56
2023/03/22 08:13:23;;;;;;;4.97;1.87;;;13.00;93.10;;;;;;5055241;28;20478;-57
2023/03/22 08:15:51;;;;;;;11.17;2.03;;;13.10;93.30;;;;;;5054711;28;20445;-57
2023/03/22 08:18:17;;;;;;;7.77;1.43;;;13.10;93.40;;;;;;5054596;28;20784;-57
2023/03/22 08:20:45;;;;;;;9.77;1.90;;;13.10;93.30;;;;;;5054693;28;20466;-57
2023/03/22 08:23:14;;;;;;;5.77;1.50;;;13.20;93.90;;;;;;5054583;28;20929;-57
2023/03/22 08:25:41;;;;;;;13.83;1.77;;;13.20;93.60;;;;;;5054253;28;20841;-57
2023/03/22 08:28:08;;;;;;;5.73;1.63;;;13.20;93.50;;;;;;5054525;28;20504;-57
2023/03/22 08:30:36;;;;;;;5.33;1.70;;;13.20;93.20;;;;;;5054570;28;20453;-57
2023/03/22 08:33:05;;;;;;;6.23;1.67;;;13.30;92.80;;;;;;5053956;28;21049;-57
2023/03/22 08:35:32;;;;;;;6.80;1.63;;;13.40;92.70;;;;;;5054369;28;20449;-57
2023/03/22 08:37:58;;;;;;;4.53;1.47;;;13.40;92.60;;;;;;5054116;28;20477;-57
2023/03/22 08:40:25;;;;;;;7.23;2.07;;;13.30;92.40;;;;;;5054417;28;20804;-57
2023/03/22 08:42:52;;;;;;;6.80;1.73;;;13.50;92.80;;;;;;5054226;28;20477;-57
2023/03/22 08:45:18;;;;;;;6.23;1.37;;;13.60;92.40;;;;;;5053827;28;20943;-57
2023/03/22 08:47:45;;;;;;;12.40;2.50;;;13.70;92.00;;;;;;5053808;28;20489;-57
2023/03/22 08:50:13;;;;;;;6.70;1.70;;;13.80;91.60;;;;;;5054087;28;20472;-57
2023/03/22 08:52:40;;;;;;;7.20;1.87;;;13.80;91.50;;;;;;5053920;28;20469;-57
2023/03/22 08:55:08;;;;;;;4.23;1.67;;;14.00;91.20;;;;;;5054313;28;20531;-57
2023/03/22 08:57:35;;;;;;;8.63;1.60;;;14.00;90.10;;;;;;5053900;28;20793;-57
2023/03/22 09:00:05;;;;;;;10.37;1.60;;;14.10;90.20;;;;;;5053958;28;20528;-57
2023/03/22 09:02:32;;;;;;;8.80;1.97;;;14.10;90.10;;;;;;5053563;28;20983;-57
2023/03/22 09:04:59;;;;;;;8.23;1.90;;;14.10;88.20;;;;;;5053265;28;20445;-57
2023/03/22 09:07:27;;;;;;;7.83;1.80;;;14.10;88.70;;;;;;5053775;28;20854;-57
2023/03/22 09:09:54;;;;;;;7.93;1.73;;;14.30;88.00;;;;;;5053810;28;20442;-57
2023/03/22 09:12:20;;;;;;;4.30;1.60;;;14.20;88.20;;;;;;5053914;28;20453;-57
2023/03/22 09:14:48;;;;;;;8.30;1.83;;;14.30;88.60;;;;;;5053825;28;20445;-57
2023/03/22 09:17:17;;;;;;;5.50;2.03;;;14.40;86.90;;;;;;5053452;28;20975;-57
2023/03/22 09:19:44;;;;;;;5.00;1.50;;;14.60;87.20;;;;;;5053700;28;20441;-57
2023/03/22 09:22:11;;;;;;;6.73;1.93;;;14.70;85.10;;;;;;5053470;28;20454;-57
2023/03/22 09:24:39;;;;;;;5.30;1.73;;;14.70;85.00;;;;;;5053882;28;20479;-57
2023/03/22 09:27:06;;;;;;;10.30;2.00;;;14.70;84.70;;;;;;5053741;28;20527;-57
2023/03/22 09:29:33;;;;;;;8.53;2.10;;;14.70;84.60;;;;;;5053567;28;20441;-57
2023/03/22 09:31:59;;;;;;;5.77;1.53;;;14.80;84.20;;;;;;5053647;28;20494;-57
2023/03/22 09:34:26;;;;;;;14.07;2.10;;;14.80;83.40;;;;;;5053196;28;20465;-57
2023/03/22 09:36:53;;;;;;;5.23;1.80;;;14.70;84.70;;;;;;5053184;28;20936;-57
2023/03/22 09:39:21;;;;;;;11.50;2.60;;;14.70;83.70;;;;;;5053639;28;20833;-57
2023/03/22 09:41:53;;;;;;;4.47;2.47;;;14.70;83.40;;;;;;5053490;28;20450;-57
2023/03/22 09:44:27;;;;;;;11.57;1.93;;;14.70;84.20;;;;;;5053589;28;20469;-57
2023/03/22 09:46:58;;;;;;;7.77;1.93;;;14.80;84.20;;;;;;5053054;28;20877;-57
2023/03/22 09:49:30;;;;;;;9.13;1.97;;;15.00;84.10;;;;;;5053483;28;20426;-57
2023/03/22 09:51:56;;;;;;;8.27;2.03;;;15.10;83.20;;;;;;5053533;28;20434;-57
2023/03/22 09:54:31;;;;;;;6.73;1.90;;;15.30;83.00;;;;;;5053405;28;20472;-57
2023/03/22 09:57:03;;;;;;;11.90;2.03;;;15.40;82.00;;;;;;5052988;28;20436;-57
2023/03/22 09:59:38;;;;;;;10.77;2.30;;;15.40;80.70;;;;;;5053175;28;20445;-57
2023/03/22 10:02:26;;;;;;;8.13;2.20;;;15.30;80.80;;;;;;5053036;28;20429;-57
2023/03/22 10:05:00;;;;;;;12.40;2.60;;;15.40;80.60;;;;;;5053137;28;20779;-57
2023/03/22 10:07:33;;;;;;;5.73;1.27;;;15.60;80.60;;;;;;5053088;28;20469;-57
2023/03/22 10:10:07;;;;;;;4.50;1.67;;;15.70;78.40;;;;;;5053084;28;20437;-56
2023/03/22 10:12:43;;;;;;;7.60;1.70;;;15.70;77.40;;;;;;5053001;28;20465;-57
2023/03/22 10:15:14;;;;;;;4.83;1.40;;;15.70;77.60;;;;;;5052660;28;20799;-57
2023/03/22 10:17:45;;;;;;;10.30;1.70;;;15.90;77.50;;;;;;5056378;28;20433;-57
2023/03/22 10:20:23;;;;;;;6.27;1.50;;;16.00;75.70;;;;;;5057017;28;20438;-57
2023/03/22 10:22:52;;;;;;;6.50;2.10;;;16.00;75.30;;;;;;5056790;28;20464;-57
2023/03/22 10:25:23;;;;;;;7.27;1.50;;;15.90;75.70;;;;;;5056866;28;20453;-56
2023/03/22 10:27:52;;;;;;;8.40;1.67;;;15.90;75.90;;;;;;5056753;28;20472;-56
2023/03/22 10:30:21;;;;;;;4.10;1.23;;;16.00;76.90;;;;;;5056675;28;20450;-57
2023/03/22 10:32:55;;;;;;;6.03;1.53;;;16.00;75.80;;;;;;5056597;28;20477;-57
2023/03/22 10:35:21;;;;;;;7.70;2.40;;;16.10;76.00;;;;;;5056534;28;20528;-57
2023/03/22 10:37:51;;;;;;;4.87;1.60;;;16.10;74.60;;;;;;5057297;28;20907;-57
2023/03/22 10:40:20;;;;;;;2.80;1.40;;;16.10;75.00;;;;;;5056595;28;20492;-57
2023/03/22 10:42:56;;;;;;;7.97;1.73;;;16.10;76.40;;;;;;5056486;28;20469;-57
2023/03/22 10:45:25;;;;;;;9.47;2.20;;;16.20;77.10;;;;;;5056137;28;20960;-57
2023/03/22 10:47:58;;;;;;;5.30;1.50;;;16.10;75.60;;;;;;5056286;28;20563;-57
2023/03/22 10:50:29;;;;;;;4.80;1.90;;;16.00;75.20;;;;;;5056517;28;20444;-56
2023/03/22 10:53:00;;;;;;;9.50;5.80;;;15.80;74.40;;;;;;5056209;28;20465;-57
2023/03/22 10:55:27;;;;;;;4.57;1.77;;;15.70;74.90;;;;;;5056265;28;20437;-56
2023/03/22 10:58:00;;;;;;;6.97;1.60;;;15.70;76.20;;;;;;5056281;28;20441;-56
2023/03/22 11:00:27;;;;;;;5.97;1.60;;;15.70;75.30;;;;;;5056191;28;20457;-56
2023/03/22 11:02:58;;;;;;;7.27;1.90;;;15.70;74.30;;;;;;5056316;28;20504;-57
2023/03/22 11:05:27;;;;;;;5.90;1.50;;;15.70;74.80;;;;;;5055931;28;20912;-57
2023/03/22 11:07:54;;;;;;;6.90;1.70;;;15.80;75.00;;;;;;5056242;28;20496;-57
2023/03/22 11:10:28;;;;;;;7.17;2.43;;;15.80;75.40;;;;;;5056295;28;20548;-57
2023/03/22 11:13:11;;;;;;;4.17;1.73;;;15.90;74.90;;;;;;5056264;28;20899;-57
2023/03/22 11:15:40;;;;;;;11.10;2.10;;;15.90;75.10;;;;;;5056164;28;20480;-57
2023/03/22 11:18:13;;;;;;;10.73;2.17;;;15.90;75.00;;;;;;5056120;28;20446;-57
2023/03/22 11:20:42;;;;;;;4.23;1.90;;;15.80;74.20;;;;;;5055928;28;20434;-56
2023/03/22 11:23:13;;;;;;;6.73;1.80;;;15.70;74.20;;;;;;5055764;28;20495;-56
2023/03/22 11:25:46;;;;;;;3.60;2.00;;;15.60;75.00;;;;;;5055809;28;20433;-56
2023/03/22 11:28:20;;;;;;;3.90;2.10;;;15.60;74.60;;;;;;5055016;28;20477;-56
2023/03/22 11:31:04;;;;;;;4.30;1.77;;;15.50;74.40;;;;;;5055691;28;20442;-56
2023/03/22 11:33:31;;;;;;;6.70;1.90;;;15.60;75.40;;;;;;5054117;28;21006;-57
2023/03/22 11:35:59;;;;;;;2.87;1.30;;;15.60;75.50;;;;;;5055459;28;20503;-57
2023/03/22 11:38:29;;;;;;;3.90;1.70;;;15.70;73.60;;;;;;5055272;28;20458;-56
2023/03/22 11:40:59;;;;;;;5.70;1.40;;;15.70;74.70;;;;;;5055376;28;20446;-56
2023/03/22 11:43:33;;;;;;;3.97;1.60;;;15.80;74.90;;;;;;5054997;28;20999;-57
2023/03/22 11:46:00;;;;;;;5.23;1.77;;;15.90;73.60;;;;;;5055532;28;20434;-56
2023/03/22 11:48:30;;;;;;;4.80;1.50;;;16.00;71.50;;;;;;5055331;28;20481;-56
2023/03/22 11:51:04;;;;;;;6.80;1.80;;;15.90;71.00;;;;;;5055257;28;20445;-58
2023/03/22 11:53:34;;;;;;;5.53;1.83;;;16.10;72.50;;;;;;5060338;28;20507;-57
2023/03/22 11:56:06;;;;;;;7.37;2.03;;;16.20;73.10;;;;;;5075233;28;20562;-57
2023/03/22 11:58:58;;;;;;;4.37;1.40;;;16.30;71.90;;;;;;5075162;28;20464;-56
2023/03/22 12:01:34;;;;;;;5.03;1.37;;;16.30;70.80;;;;;;5075037;28;20853;-57
2023/03/22 12:04:05;;;;;;;2.30;1.30;;;16.30;70.50;;;;;;5075017;28;20479;-57
2023/03/22 12:06:35;;;;;;;3.80;1.53;;;16.20;71.30;;;;;;5074896;28;20452;-56
2023/03/22 12:09:06;;;;;;;4.20;1.40;;;16.20;70.20;;;;;;5074808;28;20559;-57
2023/03/22 12:11:37;;;;;;;8.30;1.77;;;16.10;71.20;;;;;;5074859;28;20437;-57
2023/03/22 12:14:12;;;;;;;9.93;1.50;;;16.10;72.10;;;;;;5074733;28;20464;-57
2023/03/22 12:16:46;;;;;;;8.80;1.67;;;16.10;71.20;;;;;;5074755;28;20432;-56
2023/03/22 12:19:22;;;;;;;5.10;1.30;;;16.00;70.10;;;;;;5074734;28;20425;-56
2023/03/22 12:21:51;;;;;;;10.60;1.63;;;15.90;72.40;;;;;;5075235;28;20453;-56
2023/03/22 12:24:26;;;;;;;6.90;1.40;;;15.80;72.10;;;;;;5074416;28;20479;-56
2023/03/22 12:26:57;;;;;;;6.33;1.80;;;15.80;72.70;;;;;;5074581;28;20435;-56
2023/03/22 12:29:27;;;;;;;5.37;1.30;;;15.70;73.30;;;;;;5074492;28;20476;-56
2023/03/22 12:32:02;;;;;;;5.67;1.23;;;15.60;73.50;;;;;;5074342;28;20453;-57
2023/03/22 12:34:38;;;;;;;1.67;1.00;;;15.60;74.60;;;;;;5074108;28;20965;-56
2023/03/22 12:37:08;;;;;;;8.20;1.97;;;15.60;74.00;;;;;;5074241;28;20433;-56
2023/03/22 12:39:40;;;;;;;3.63;1.37;;;15.60;74.70;;;;;;5072984;28;21029;-57
2023/03/22 12:42:13;;;;;;;9.37;1.80;;;15.60;74.60;;;;;;5074182;28;20482;-57
2023/03/22 12:44:44;;;;;;;3.20;1.40;;;15.60;74.80;;;;;;5073798;28;20938;-57
2023/03/22 12:47:18;;;;;;;7.40;1.63;;;15.50;74.50;;;;;;5074195;28;20456;-56
2023/03/22 12:49:53;;;;;;;7.07;1.67;;;15.50;74.90;;;;;;5073705;28;21056;-56
2023/03/22 12:52:25;;;;;;;5.30;1.83;;;15.40;74.60;;;;;;5073922;28;20435;-56
2023/03/22 12:54:52;;;;;;;5.60;1.67;;;15.30;76.20;;;;;;5074091;28;20440;-56
2023/03/22 12:57:20;;;;;;;4.10;1.40;;;15.30;76.90;;;;;;5073590;28;20934;-56
2023/03/22 12:59:50;;;;;;;9.80;2.93;;;15.30;75.90;;;;;;5073878;28;20455;-56